createdAt,value
2022-08-19T00:00:12.654Z,77.07
2022-08-19T00:05:31.953Z,77.31
2022-08-19T00:10:51.265Z,77.49
2022-08-19T00:16:10.825Z,77.87
2022-08-19T00:21:30.389Z,78.32
2022-08-19T00:26:49.515Z,78.72
2022-08-19T00:32:08.215Z,79.12
2022-08-19T00:37:27.789Z,79.33
2022-08-19T00:46:11.841Z,79.4
2022-08-19T00:54:33.887Z,79.9
2022-08-19T00:58:44.950Z,80.17
2022-08-19T01:04:04.433Z,80.44
2022-08-19T01:09:24.097Z,80.51
2022-08-19T01:14:43.798Z,80.47
2022-08-19T01:20:02.775Z,80.39
2022-08-19T01:25:22.077Z,80.44
2022-08-19T01:30:43.040Z,80.54
2022-08-19T01:36:00.383Z,80.5
2022-08-19T01:44:33.473Z,80.28
2022-08-19T01:46:38.699Z,80.05
2022-08-19T01:57:16.763Z,80.15
2022-08-19T02:02:36.250Z,80.55
2022-08-19T02:07:55.801Z,81.08
2022-08-19T02:13:14.608Z,81.69
2022-08-19T02:18:33.993Z,81.9
2022-08-19T02:23:52.795Z,82.41
2022-08-19T02:29:12.404Z,82.77
2022-08-19T02:34:32.071Z,83.23
2022-08-19T02:39:51.155Z,83.21
2022-08-19T02:45:22.063Z,82.73
2022-08-19T02:50:29.685Z,83.06
2022-08-19T02:55:48.652Z,83.99
2022-08-19T03:01:07.386Z,84.49
2022-08-19T03:06:26.786Z,84.8
2022-08-19T03:11:45.697Z,85.02
2022-08-19T03:17:04.827Z,84.88
2022-08-19T03:22:24.462Z,84.82
2022-08-19T03:27:43.883Z,85.03
2022-08-19T03:33:03.112Z,85.23
2022-08-19T03:49:01.289Z,84.92
2022-08-19T03:54:20.781Z,84.49
2022-08-19T03:59:50.222Z,84.52
2022-08-19T04:04:59.075Z,84.44
2022-08-19T04:10:18.695Z,84.29
2022-08-19T04:15:38.381Z,84.64
2022-08-19T04:20:57.647Z,85.33
2022-08-19T04:26:16.978Z,85.96
2022-08-19T04:31:46.994Z,85.87
2022-08-19T04:36:55.124Z,85.9
2022-08-19T04:45:28.215Z,85.55
2022-08-19T04:58:11.411Z,84.26
2022-08-19T05:03:30.694Z,83.54
2022-08-19T05:12:03.172Z,83.35
2022-08-19T05:16:19.684Z,83.16
2022-08-19T05:25:11.546Z,82.55
2022-08-19T05:25:20.802Z,81.81
2022-08-19T05:30:47.054Z,82.51
2022-08-19T05:39:24.644Z,82.78
2022-08-19T05:47:45.697Z,82.43
2022-08-19T05:51:56.674Z,82.24
2022-08-19T05:57:15.748Z,82.48
2022-08-19T06:02:35.330Z,82.04
2022-08-19T06:07:55.001Z,81.83
2022-08-19T06:13:14.031Z,80.93
2022-08-19T06:18:33.346Z,80.06
2022-08-19T06:23:52.066Z,79.93
2022-08-19T06:29:11.465Z,80.17
2022-08-19T06:34:30.773Z,79.75
2022-08-19T06:43:03.873Z,79.42
2022-08-19T06:55:47.406Z,77.97
2022-08-19T07:01:08.544Z,77.29
2022-08-19T07:06:43.863Z,76.94
2022-08-19T07:11:44.972Z,76.83
2022-08-19T07:17:04.546Z,76.17
2022-08-19T07:25:37.597Z,75.87
2022-08-19T07:27:42.450Z,75.44
2022-08-19T07:33:03.496Z,75.08
2022-08-19T07:41:34.680Z,75.26
2022-08-19T07:48:58.598Z,74.67
2022-08-19T07:54:17.733Z,74.76
2022-08-19T07:59:37.193Z,74.56
2022-08-19T08:10:20.891Z,74.33
2022-08-19T08:15:36.516Z,73.83
2022-08-19T08:20:53.113Z,74.28
2022-08-19T08:26:12.664Z,74.25
2022-08-19T08:31:32.223Z,73.74
2022-08-19T08:36:51.210Z,73.83
2022-08-19T08:45:24.235Z,73.32
2022-08-19T08:53:57.297Z,73.23
2022-08-19T08:58:13.852Z,72.51
2022-08-19T09:03:26.418Z,72.42
2022-08-19T09:08:45.957Z,71.32
2022-08-19T09:14:04.703Z,70.86
2022-08-19T09:19:24.180Z,70.61
2022-08-19T09:24:43.191Z,70.49
2022-08-19T09:30:01.939Z,70.44
2022-08-19T09:35:21.343Z,69.68
2022-08-19T09:40:40.739Z,69.19
2022-08-19T09:45:59.994Z,69.16
2022-08-19T09:54:33.045Z,68.26
2022-08-19T09:58:49.575Z,68.78
2022-08-19T10:07:16.430Z,67.86
2022-08-19T10:12:35.143Z,67.51
2022-08-19T10:17:55.145Z,66.9
2022-08-19T10:23:13.372Z,67.62
2022-08-19T10:28:32.743Z,68.25
2022-08-19T10:33:53.676Z,67.83
2022-08-19T10:39:10.635Z,66.68
2022-08-19T10:44:32.472Z,65.55
2022-08-19T10:49:48.966Z,64.3
2022-08-19T10:55:08.817Z,65.71
2022-08-19T11:00:27.229Z,66.01
2022-08-19T11:05:46.744Z,66.22
2022-08-19T11:11:06.180Z,64.81
2022-08-19T11:16:25.718Z,64.08
2022-08-19T11:21:44.505Z,62.65
2022-08-19T11:27:03.417Z,62.47
2022-08-19T11:32:22.536Z,61.55
2022-08-19T11:37:41.723Z,59.37
2022-08-19T11:46:14.777Z,59.24
2022-08-19T11:50:31.318Z,59.14
2022-08-19T11:53:39.330Z,57.54
2022-08-19T11:58:58.148Z,56.83
2022-08-19T12:04:17.195Z,56.08
2022-08-19T12:12:53.795Z,55.52
2022-08-19T12:20:14.755Z,55.79
2022-08-19T12:28:47.803Z,55.14
2022-08-19T12:33:04.332Z,55.6
2022-08-19T12:41:37.411Z,55.88
2022-08-19T12:46:50.557Z,55.73
2022-08-19T12:55:23.675Z,55.36
2022-08-19T12:59:40.187Z,54.84
2022-08-19T13:02:47.847Z,53.45
2022-08-19T13:08:06.699Z,52.26
2022-08-19T13:13:26.210Z,51.35
2022-08-19T13:18:45.058Z,49.44
2022-08-19T13:24:03.924Z,48.79
2022-08-19T13:29:23.295Z,47.41
2022-08-19T13:34:41.950Z,45.24
2022-08-19T13:40:12.277Z,45.93
2022-08-19T13:45:20.715Z,47.53
2022-08-19T13:50:40.251Z,46.33
2022-08-19T13:55:59.696Z,46.79
2022-08-19T14:01:18.605Z,47.66
2022-08-19T14:06:37.810Z,47.41
2022-08-19T14:11:57.155Z,48
2022-08-19T14:17:16.633Z,48
2022-08-19T14:22:46.592Z,48.09
2022-08-19T14:31:08.645Z,48.3
2022-08-19T14:33:14.193Z,47.46
2022-08-19T14:38:33.629Z,47.96
2022-08-19T14:43:52.547Z,47.76
2022-08-19T14:54:31.575Z,47.55
2022-08-19T14:59:50.442Z,47.93
2022-08-19T15:05:10.083Z,48.63
2022-08-19T15:10:28.954Z,47.98
2022-08-19T15:15:47.673Z,47.12
2022-08-19T15:21:06.442Z,47.43
2022-08-19T15:26:26.039Z,47.95
2022-08-19T15:31:44.833Z,48.1
2022-08-19T15:40:17.934Z,48.79
2022-08-19T15:44:34.404Z,54.38
2022-08-19T15:47:42.698Z,54.8
2022-08-19T15:53:12.426Z,58.11
2022-08-19T16:01:38.189Z,60.13
2022-08-19T16:03:40.240Z,61.98
2022-08-19T16:09:10.437Z,63.47
2022-08-19T16:14:19.133Z,63.74
2022-08-19T16:19:38.423Z,64.01
2022-08-19T16:24:57.611Z,64.69
2022-08-19T16:30:16.890Z,63.63
2022-08-19T16:35:35.886Z,62.78
2022-08-19T16:40:54.885Z,62.19
2022-08-19T16:46:15.982Z,63.77
2022-08-19T16:51:32.905Z,63.78
2022-08-19T16:56:52.156Z,62.77
2022-08-19T17:02:11.554Z,62.4
2022-08-19T17:07:32.226Z,62.18
2022-08-19T17:12:49.261Z,62.6
2022-08-19T17:18:19.002Z,63.14
2022-08-19T17:23:36.751Z,62.61
2022-08-19T17:28:46.717Z,62.49
2022-08-19T17:34:06.075Z,63.33
2022-08-19T17:39:25.535Z,63.84
2022-08-19T17:44:44.803Z,64.8
2022-08-19T17:50:15.784Z,65.33
2022-08-19T17:55:22.619Z,65.76
2022-08-19T18:00:52.727Z,66.03
2022-08-19T18:06:00.844Z,66.47
2022-08-19T18:11:19.977Z,69.14
2022-08-19T18:20:04.013Z,70.76
2022-08-19T18:24:09.574Z,72.1
2022-08-19T18:32:42.629Z,74.04
2022-08-19T18:37:55.080Z,74.71
2022-08-19T18:43:14.618Z,75.19
2022-08-19T18:48:33.447Z,75.68
2022-08-19T18:53:52.954Z,76.26
2022-08-19T18:59:24.085Z,76.78
2022-08-19T19:04:31.172Z,76.98
2022-08-19T19:09:50.696Z,77.11
2022-08-19T19:15:09.464Z,77.19
2022-08-19T19:20:36.289Z,77.26
2022-08-19T19:25:50.775Z,77.51
2022-08-19T19:31:07.213Z,77.69
2022-08-19T19:39:45.136Z,77.75
2022-08-19T19:41:45.111Z,77.93
2022-08-19T19:47:04.648Z,77.96
2022-08-19T19:52:23.332Z,77.93
2022-08-19T19:57:42.929Z,78.32
2022-08-19T20:03:01.749Z,78.57
2022-08-19T20:08:21.314Z,79.03
2022-08-19T20:16:54.380Z,79.48
2022-08-19T20:24:18.907Z,80.1
2022-08-19T20:29:48.028Z,81.04
2022-08-19T20:34:56.809Z,81.68
2022-08-19T20:40:20.075Z,82.15
2022-08-19T20:48:49.480Z,82.17
2022-08-19T20:53:06.011Z,82.32
2022-08-19T20:56:14.312Z,82.41
2022-08-19T21:07:05.479Z,82.9
2022-08-19T21:16:28.792Z,83.22
2022-08-19T21:28:10.115Z,84.1
2022-08-19T21:33:31.724Z,84.26
2022-08-19T21:39:00.530Z,84.51
2022-08-19T21:44:08.092Z,85.01
2022-08-19T21:52:41.166Z,85.33
2022-08-19T22:01:14.234Z,86.75
2022-08-19T22:05:30.692Z,87.27
2022-08-19T22:10:43.878Z,87.45
2022-08-19T22:16:02.851Z,87.13
2022-08-19T22:21:37.424Z,87.06
2022-08-19T22:26:51.944Z,86.99
2022-08-19T22:32:00.369Z,87.01
2022-08-19T22:37:19.511Z,86.94
2022-08-19T22:42:38.577Z,86.54
2022-08-19T22:47:57.751Z,86.19
2022-08-19T22:53:29.252Z,86.29
2022-08-19T23:01:50.235Z,86.7
2022-08-19T23:06:06.800Z,87.1
2022-08-19T23:09:16.550Z,87.41
2022-08-19T23:14:34.156Z,87.63
2022-08-19T23:20:04.046Z,87.84
2022-08-19T23:28:26.134Z,87.94
2022-08-19T23:32:42.614Z,88.18
2022-08-19T23:36:59.164Z,88.37
2022-08-19T23:41:15.659Z,88.33
2022-08-19T23:46:29.138Z,88.44
2022-08-19T23:51:48.062Z,88.87
